createdAt,value
2016-10-26T00:00:04.649Z,3.46
2016-10-26T00:01:13.345Z,3.4
2016-10-26T00:02:22.049Z,3.3
2016-10-26T00:03:31.059Z,3.11
2016-10-26T00:04:41.161Z,3.01
2016-10-26T00:05:50.184Z,2.93
2016-10-26T00:06:58.887Z,2.88
2016-10-26T00:08:07.588Z,2.88
2016-10-26T00:09:16.288Z,2.77
2016-10-26T00:10:25.274Z,2.77
2016-10-26T00:11:33.971Z,2.76
2016-10-26T00:12:42.665Z,2.73
2016-10-26T00:13:51.393Z,2.87
2016-10-26T00:15:00.098Z,2.88
2016-10-26T00:16:08.853Z,2.91
2016-10-26T00:17:17.565Z,2.91
2016-10-26T00:18:26.289Z,2.7
2016-10-26T00:19:35.072Z,2.76
2016-10-26T00:20:43.771Z,2.75
2016-10-26T00:21:52.618Z,2.87
2016-10-26T00:23:01.313Z,2.85
2016-10-26T00:24:10.017Z,2.88
2016-10-26T00:25:18.719Z,2.76
2016-10-26T00:26:27.412Z,2.76
2016-10-26T00:27:36.157Z,2.75
2016-10-26T00:28:45.165Z,2.65
2016-10-26T00:29:53.863Z,2.7
2016-10-26T00:31:02.557Z,2.87
2016-10-26T00:32:11.256Z,2.9
2016-10-26T00:33:20.002Z,2.85
2016-10-26T00:34:28.701Z,2.82
2016-10-26T00:35:37.417Z,2.73
2016-10-26T00:36:46.114Z,2.7
2016-10-26T00:37:54.807Z,2.72
2016-10-26T00:39:03.582Z,2.77
2016-10-26T00:40:12.276Z,2.75
2016-10-26T00:41:20.971Z,2.85
2016-10-26T00:42:29.695Z,2.95
2016-10-26T00:43:38.402Z,2.95
2016-10-26T00:44:47.250Z,2.98
2016-10-26T00:45:55.943Z,2.98
2016-10-26T00:47:04.644Z,2.95
2016-10-26T00:48:13.353Z,2.95
2016-10-26T00:49:22.083Z,3.08
2016-10-26T00:50:30.830Z,3.05
2016-10-26T00:51:39.525Z,3.08
2016-10-26T00:52:48.219Z,3.06
2016-10-26T00:53:56.912Z,3.05
2016-10-26T00:55:05.613Z,3.05
2016-10-26T00:56:14.379Z,3.08
2016-10-26T00:57:23.076Z,3.05
2016-10-26T00:58:31.778Z,3.03
2016-10-26T00:59:40.476Z,3.06
2016-10-26T01:00:49.200Z,3.09
2016-10-26T01:01:57.949Z,3.13
2016-10-26T01:03:06.649Z,3.12
2016-10-26T01:04:15.347Z,3.11
2016-10-26T01:05:24.048Z,3.13
2016-10-26T01:06:32.748Z,3.24
2016-10-26T01:07:41.528Z,3.22
2016-10-26T01:08:50.225Z,3.19
2016-10-26T01:09:58.961Z,3.19
2016-10-26T01:11:07.653Z,3.36
2016-10-26T01:12:16.349Z,3.24
2016-10-26T01:13:25.090Z,3.31
2016-10-26T01:14:33.784Z,3.31
2016-10-26T01:15:42.487Z,3.41
2016-10-26T01:16:51.177Z,3.31
2016-10-26T01:17:59.876Z,3.37
2016-10-26T01:19:08.628Z,3.34
2016-10-26T01:20:17.328Z,3.41
2016-10-26T01:21:26.016Z,3.34
2016-10-26T01:22:34.713Z,3.45
2016-10-26T01:23:43.404Z,3.45
2016-10-26T01:24:52.152Z,3.48
2016-10-26T01:26:00.846Z,3.43
2016-10-26T01:27:09.542Z,3.53
2016-10-26T01:28:18.241Z,3.59
2016-10-26T01:29:26.940Z,3.58
2016-10-26T01:30:35.690Z,3.55
2016-10-26T01:31:44.384Z,3.58
2016-10-26T01:32:53.088Z,3.55
2016-10-26T01:34:01.795Z,3.61
2016-10-26T01:35:10.490Z,3.52
2016-10-26T01:36:19.236Z,3.58
2016-10-26T01:37:27.959Z,3.52
2016-10-26T01:38:36.656Z,3.49
2016-10-26T01:39:45.356Z,3.45
2016-10-26T01:40:54.058Z,3.46
2016-10-26T01:42:02.812Z,3.45
2016-10-26T01:43:11.507Z,3.58
2016-10-26T01:44:20.203Z,3.67
2016-10-26T01:45:28.899Z,3.61
2016-10-26T01:46:37.598Z,3.64
2016-10-26T01:47:46.816Z,3.74
2016-10-26T01:48:55.518Z,3.67
2016-10-26T01:50:04.213Z,3.73
2016-10-26T01:51:12.912Z,3.71
2016-10-26T01:52:21.615Z,3.58
2016-10-26T01:53:30.493Z,3.7
2016-10-26T01:54:39.190Z,3.58
2016-10-26T01:55:47.883Z,3.63
2016-10-26T01:56:56.587Z,3.59
2016-10-26T01:58:05.913Z,3.49
2016-10-26T01:59:14.655Z,3.45
2016-10-26T02:00:23.382Z,3.4
2016-10-26T02:01:32.075Z,3.46
2016-10-26T02:02:40.776Z,3.55
2016-10-26T02:03:49.473Z,3.52
2016-10-26T02:04:58.219Z,3.56
2016-10-26T02:06:06.919Z,3.53
2016-10-26T02:07:15.613Z,3.5
2016-10-26T02:08:24.342Z,3.43
2016-10-26T02:09:33.035Z,3.48
2016-10-26T02:10:41.791Z,3.3
2016-10-26T02:11:50.488Z,3.33
2016-10-26T02:12:59.183Z,3.34
2016-10-26T02:14:07.876Z,3.34
2016-10-26T02:15:16.573Z,3.31
2016-10-26T02:16:25.370Z,3.24
2016-10-26T02:17:34.078Z,3.27
2016-10-26T02:18:42.780Z,3.24
2016-10-26T02:19:51.476Z,3.34
2016-10-26T02:21:00.169Z,3.26
2016-10-26T02:22:08.919Z,3.37
2016-10-26T02:23:17.934Z,3.41
2016-10-26T02:24:26.956Z,3.36
2016-10-26T02:25:35.651Z,3.3
2016-10-26T02:26:44.358Z,3.27
2016-10-26T02:27:53.135Z,3.27
2016-10-26T02:29:01.975Z,3.21
2016-10-26T02:30:10.671Z,3.21
2016-10-26T02:31:19.367Z,3.27
2016-10-26T02:32:28.093Z,3.13
2016-10-26T02:33:36.833Z,3.22
2016-10-26T02:34:45.534Z,3.12
2016-10-26T02:35:54.543Z,3.27
2016-10-26T02:37:03.243Z,3.36
2016-10-26T02:38:11.944Z,3.52
2016-10-26T02:39:20.698Z,3.59
2016-10-26T02:40:29.396Z,3.77
2016-10-26T02:41:38.093Z,3.76
2016-10-26T02:42:46.790Z,3.78
2016-10-26T02:43:55.484Z,3.85
2016-10-26T02:45:04.236Z,3.85
2016-10-26T02:46:12.936Z,3.91
2016-10-26T02:47:21.630Z,3.81
2016-10-26T02:48:30.339Z,3.81
2016-10-26T02:49:39.081Z,3.82
2016-10-26T02:50:47.824Z,3.86
2016-10-26T02:51:56.522Z,3.76
2016-10-26T02:53:05.225Z,3.74
2016-10-26T02:54:13.927Z,3.77
2016-10-26T02:55:22.621Z,3.71
2016-10-26T02:56:31.362Z,3.74
2016-10-26T02:57:40.064Z,3.78
2016-10-26T02:58:48.763Z,3.86
2016-10-26T02:59:57.453Z,3.81
2016-10-26T03:01:06.161Z,3.78
2016-10-26T03:02:14.908Z,3.85
2016-10-26T03:03:23.615Z,3.74
2016-10-26T03:04:32.312Z,3.56
2016-10-26T03:05:41.011Z,3.63
2016-10-26T03:06:49.705Z,3.66
2016-10-26T03:07:58.452Z,3.58
2016-10-26T03:09:07.145Z,3.63
2016-10-26T03:10:15.843Z,3.68
2016-10-26T03:11:24.542Z,3.76
2016-10-26T03:12:33.237Z,3.71
2016-10-26T03:13:41.984Z,3.78
2016-10-26T03:14:50.686Z,3.74
2016-10-26T03:15:59.381Z,3.67
2016-10-26T03:17:08.083Z,3.63
2016-10-26T03:18:16.777Z,3.67
2016-10-26T03:19:25.520Z,3.48
2016-10-26T03:20:34.252Z,3.4
2016-10-26T03:21:42.946Z,3.36
2016-10-26T03:22:51.648Z,3.37
2016-10-26T03:24:00.345Z,3.33
2016-10-26T03:25:09.201Z,3.3
2016-10-26T03:26:17.892Z,3.29
2016-10-26T03:27:26.624Z,3.34
2016-10-26T03:28:35.319Z,3.33
2016-10-26T03:29:44.024Z,3.33
2016-10-26T03:30:52.778Z,3.34
2016-10-26T03:32:01.477Z,3.31
2016-10-26T03:33:10.193Z,3.24
2016-10-26T03:34:18.887Z,3.26
2016-10-26T03:35:27.586Z,3.26
2016-10-26T03:36:36.365Z,3.15
2016-10-26T03:37:45.062Z,3.08
2016-10-26T03:38:53.759Z,3.05
2016-10-26T03:40:02.458Z,3.11
2016-10-26T03:41:11.151Z,3.15
2016-10-26T03:42:19.899Z,3.12
2016-10-26T03:43:28.599Z,3.27
2016-10-26T03:44:37.300Z,3.22
2016-10-26T03:45:45.991Z,3.21
2016-10-26T03:46:54.688Z,3.33
2016-10-26T03:48:03.434Z,3.29
2016-10-26T03:49:12.135Z,3.41
2016-10-26T03:50:20.831Z,3.53
2016-10-26T03:51:29.542Z,3.55
2016-10-26T03:52:38.279Z,3.61
2016-10-26T03:53:47.028Z,3.61
2016-10-26T03:54:55.726Z,3.59
2016-10-26T03:56:04.422Z,3.45
2016-10-26T03:57:13.441Z,3.49
2016-10-26T03:58:22.141Z,3.46
2016-10-26T03:59:30.889Z,3.33
2016-10-26T04:00:39.579Z,3.43
2016-10-26T04:01:48.278Z,3.33
2016-10-26T04:02:56.980Z,3.31
2016-10-26T04:04:05.683Z,3.22
2016-10-26T04:05:14.426Z,3.18
2016-10-26T04:06:23.126Z,3.24
2016-10-26T04:07:31.825Z,3.31
2016-10-26T04:08:40.522Z,3.3
2016-10-26T04:09:49.221Z,3.43
2016-10-26T04:10:57.971Z,3.45
2016-10-26T04:12:06.659Z,3.49
2016-10-26T04:13:15.687Z,3.52
2016-10-26T04:14:24.416Z,3.5
2016-10-26T04:15:33.116Z,3.55
2016-10-26T04:16:41.861Z,3.48
2016-10-26T04:17:50.562Z,3.53
2016-10-26T04:18:59.256Z,3.59
2016-10-26T04:20:08.267Z,3.5
2016-10-26T04:21:16.973Z,3.59
2016-10-26T04:22:25.718Z,3.58
2016-10-26T04:23:34.415Z,3.61
2016-10-26T04:24:43.111Z,3.53
2016-10-26T04:25:51.817Z,3.55
2016-10-26T04:27:00.516Z,3.46
2016-10-26T04:28:09.262Z,3.46
2016-10-26T04:29:17.976Z,3.45
2016-10-26T04:30:26.671Z,3.34
2016-10-26T04:31:35.370Z,3.45
2016-10-26T04:32:44.071Z,3.31
2016-10-26T04:33:52.815Z,3.36
2016-10-26T04:35:01.525Z,3.36
2016-10-26T04:36:10.218Z,3.27
2016-10-26T04:37:18.919Z,3.26
2016-10-26T04:38:27.610Z,3.3
2016-10-26T04:39:36.400Z,3.34
2016-10-26T04:40:45.092Z,3.3
2016-10-26T04:41:53.784Z,3.37
2016-10-26T04:43:02.480Z,3.37
2016-10-26T04:44:11.175Z,3.21
2016-10-26T04:45:19.951Z,3.12
2016-10-26T04:46:28.653Z,3.18
2016-10-26T04:47:37.346Z,3.16
2016-10-26T04:48:46.044Z,3.18
2016-10-26T04:49:54.740Z,3.15
2016-10-26T04:51:03.486Z,3.3
2016-10-26T04:52:12.182Z,3.24
2016-10-26T04:53:20.880Z,3.22
2016-10-26T04:54:29.579Z,3.3
2016-10-26T04:55:38.277Z,3.31
2016-10-26T04:56:47.187Z,3.3
2016-10-26T04:57:55.915Z,3.21
2016-10-26T04:59:04.610Z,3.26
2016-10-26T05:00:13.304Z,3.15
2016-10-26T05:01:22.051Z,3.09
2016-10-26T05:02:30.809Z,3.05
2016-10-26T05:03:39.510Z,3.15
2016-10-26T05:04:48.211Z,3.26
2016-10-26T05:05:56.914Z,3.34
2016-10-26T05:07:05.608Z,3.37
2016-10-26T05:08:14.360Z,3.31
2016-10-26T05:09:23.058Z,3.31
2016-10-26T05:10:31.753Z,3.34
2016-10-26T05:11:40.452Z,3.26
2016-10-26T05:12:49.154Z,3.3
2016-10-26T05:13:57.901Z,3.4
2016-10-26T05:15:06.598Z,3.27
2016-10-26T05:16:15.294Z,3.29
2016-10-26T05:17:24.318Z,3.22
2016-10-26T05:18:33.013Z,3.08
2016-10-26T05:19:42.076Z,2.98
2016-10-26T05:20:50.768Z,2.98
2016-10-26T05:21:59.471Z,3.01
2016-10-26T05:23:08.172Z,3
2016-10-26T05:24:16.870Z,2.97
2016-10-26T05:25:25.611Z,2.94
2016-10-26T05:26:34.480Z,2.94
2016-10-26T05:27:43.488Z,2.97
2016-10-26T05:28:52.181Z,2.93
2016-10-26T05:30:00.880Z,2.94
2016-10-26T05:31:09.634Z,2.88
2016-10-26T05:32:18.357Z,2.88
2016-10-26T05:33:27.051Z,2.95
2016-10-26T05:34:35.757Z,2.91
2016-10-26T05:35:44.450Z,2.91
2016-10-26T05:36:53.199Z,2.9
2016-10-26T05:38:01.893Z,2.87
2016-10-26T05:39:10.591Z,2.87
2016-10-26T05:40:19.613Z,2.95
2016-10-26T05:41:28.318Z,2.91
2016-10-26T05:42:37.019Z,2.94
2016-10-26T05:43:45.715Z,3
2016-10-26T05:44:54.728Z,2.9
2016-10-26T05:46:03.425Z,3.01
2016-10-26T05:47:12.122Z,2.98
2016-10-26T05:48:20.857Z,3.06
2016-10-26T05:49:29.558Z,3.12
2016-10-26T05:50:38.259Z,3.05
2016-10-26T05:51:46.948Z,3
2016-10-26T05:52:55.646Z,3.03
2016-10-26T05:54:04.343Z,2.97
2016-10-26T05:55:13.074Z,2.93
2016-10-26T05:56:21.769Z,3.09
2016-10-26T05:57:30.460Z,3.13
2016-10-26T05:58:39.155Z,3.16
2016-10-26T05:59:47.854Z,3.27
2016-10-26T06:00:56.556Z,3.27
2016-10-26T06:02:05.254Z,3.27
2016-10-26T06:03:13.959Z,3.18
2016-10-26T06:04:22.663Z,3.15
2016-10-26T06:05:31.369Z,3.13
2016-10-26T06:06:40.381Z,3.21
2016-10-26T06:07:49.074Z,3.15
2016-10-26T06:08:57.777Z,3.18
2016-10-26T06:10:06.470Z,3.15
2016-10-26T06:11:15.175Z,3.03
2016-10-26T06:12:23.869Z,2.98
2016-10-26T06:13:32.561Z,2.93
2016-10-26T06:14:41.259Z,3.05
2016-10-26T06:15:50.272Z,2.93
2016-10-26T06:16:58.968Z,2.9
2016-10-26T06:18:07.669Z,2.93
2016-10-26T06:19:16.361Z,3.03
2016-10-26T06:20:25.058Z,2.94
2016-10-26T06:21:33.758Z,2.98
2016-10-26T06:22:42.458Z,3
2016-10-26T06:23:51.165Z,3.09
2016-10-26T06:24:59.866Z,2.97
2016-10-26T06:26:08.586Z,3.01
2016-10-26T06:27:17.282Z,2.93
2016-10-26T06:28:25.976Z,3.03
2016-10-26T06:29:34.672Z,3.05
2016-10-26T06:30:43.371Z,2.98
2016-10-26T06:31:52.064Z,2.95
2016-10-26T06:33:00.799Z,3.03
2016-10-26T06:34:09.498Z,2.88
2016-10-26T06:35:18.193Z,2.77
2016-10-26T06:36:26.896Z,2.64
2016-10-26T06:37:35.597Z,2.54
2016-10-26T06:38:44.305Z,2.37
2016-10-26T06:39:53.007Z,2.26
2016-10-26T06:41:01.701Z,2.14
2016-10-26T06:42:10.400Z,2.1
2016-10-26T06:43:19.104Z,2.12
2016-10-26T06:44:27.802Z,2.03
2016-10-26T06:45:36.506Z,2.01
2016-10-26T06:46:45.197Z,2.01
2016-10-26T06:47:53.891Z,1.88
2016-10-26T06:49:02.588Z,1.93
2016-10-26T06:50:11.279Z,1.86
2016-10-26T06:51:20.042Z,1.88
2016-10-26T06:52:28.735Z,1.82
2016-10-26T06:53:37.437Z,1.85
2016-10-26T06:54:46.167Z,1.88
2016-10-26T06:55:54.862Z,1.93
2016-10-26T06:57:03.564Z,1.95
2016-10-26T06:58:12.265Z,2
2016-10-26T06:59:20.959Z,1.98
2016-10-26T07:00:29.661Z,2.05
2016-10-26T07:01:38.365Z,2.01
2016-10-26T07:02:47.066Z,2.01
2016-10-26T07:03:55.766Z,2.14
2016-10-26T07:05:04.460Z,2.16
2016-10-26T07:06:13.207Z,2.25
2016-10-26T07:07:21.900Z,2.32
2016-10-26T07:08:30.662Z,2.36
2016-10-26T07:09:40.699Z,2.55
2016-10-26T07:10:49.512Z,2.62
2016-10-26T07:11:58.252Z,2.73
2016-10-26T07:13:06.949Z,2.91
2016-10-26T07:14:15.956Z,2.85
2016-10-26T07:15:24.648Z,2.95
2016-10-26T07:16:33.347Z,2.91
2016-10-26T07:17:42.038Z,2.97
2016-10-26T07:18:50.738Z,2.95
2016-10-26T07:19:59.430Z,3.05
2016-10-26T07:21:08.128Z,3.08
2016-10-26T07:22:16.826Z,3.03
2016-10-26T07:23:25.523Z,3.08
2016-10-26T07:24:34.220Z,2.95
2016-10-26T07:25:42.909Z,2.97
2016-10-26T07:26:51.918Z,3.01
2016-10-26T07:28:00.615Z,3
2016-10-26T07:29:09.347Z,2.98
2016-10-26T07:30:18.585Z,2.88
2016-10-26T07:31:27.321Z,2.77
2016-10-26T07:32:36.018Z,2.82
2016-10-26T07:33:44.707Z,2.73
2016-10-26T07:34:53.395Z,2.77
2016-10-26T07:36:02.091Z,2.83
2016-10-26T07:37:10.790Z,2.93
2016-10-26T07:38:19.480Z,2.93
2016-10-26T07:39:28.174Z,3.01
2016-10-26T07:40:36.869Z,3.05
2016-10-26T07:41:45.568Z,3.09
2016-10-26T07:42:54.256Z,3.18
2016-10-26T07:44:02.956Z,3.26
2016-10-26T07:45:11.652Z,3.34
2016-10-26T07:46:20.345Z,3.37
2016-10-26T07:47:29.037Z,3.31
2016-10-26T07:48:37.732Z,3.41
2016-10-26T07:49:46.427Z,3.37
2016-10-26T07:50:55.446Z,3.43
2016-10-26T07:52:04.145Z,3.4
2016-10-26T07:53:12.838Z,3.45
2016-10-26T07:54:21.532Z,3.49
2016-10-26T07:55:30.232Z,3.56
2016-10-26T07:56:38.936Z,3.55
2016-10-26T07:57:47.631Z,3.56
2016-10-26T07:58:56.368Z,3.53
2016-10-26T08:00:05.057Z,3.56
2016-10-26T08:01:13.758Z,3.64
2016-10-26T08:02:22.466Z,3.61
2016-10-26T08:03:31.167Z,3.58
2016-10-26T08:04:39.864Z,3.66
2016-10-26T08:05:48.554Z,3.73
2016-10-26T08:06:57.245Z,3.74
2016-10-26T08:08:05.942Z,3.64
2016-10-26T08:09:14.641Z,3.68
2016-10-26T08:10:23.662Z,3.78
2016-10-26T08:11:32.365Z,3.94
2016-10-26T08:12:41.065Z,3.95
2016-10-26T08:13:49.776Z,3.96
2016-10-26T08:14:58.471Z,3.88
2016-10-26T08:16:07.172Z,3.78
2016-10-26T08:17:15.871Z,3.78
2016-10-26T08:18:24.562Z,3.95
2016-10-26T08:19:33.260Z,3.99
2016-10-26T08:20:41.957Z,3.94
2016-10-26T08:21:50.650Z,3.95
2016-10-26T08:22:59.345Z,4.03
2016-10-26T08:24:08.046Z,4.09
2016-10-26T08:25:16.743Z,4.09
2016-10-26T08:26:25.438Z,4.1
2016-10-26T08:27:34.129Z,4.09
2016-10-26T08:28:42.864Z,4.22
2016-10-26T08:29:51.564Z,4.24
2016-10-26T08:31:00.256Z,4.38
2016-10-26T08:32:08.946Z,4.42
2016-10-26T08:33:17.665Z,4.48
2016-10-26T08:34:26.367Z,4.39
2016-10-26T08:35:35.069Z,4.45
2016-10-26T08:36:43.761Z,4.46
2016-10-26T08:37:52.455Z,4.57
2016-10-26T08:39:01.148Z,4.68
2016-10-26T08:40:09.843Z,4.67
2016-10-26T08:41:18.537Z,4.75
2016-10-26T08:42:27.272Z,4.84
2016-10-26T08:43:35.971Z,4.89
2016-10-26T08:44:44.673Z,4.92
2016-10-26T08:45:53.365Z,5.02
2016-10-26T08:47:02.070Z,5
2016-10-26T08:48:11.078Z,5.05
2016-10-26T08:49:19.784Z,5.04
2016-10-26T08:50:28.487Z,5.05
2016-10-26T08:51:37.184Z,5.01
2016-10-26T08:52:45.877Z,5.02
2016-10-26T08:53:54.579Z,5
2016-10-26T08:55:03.276Z,5.02
2016-10-26T08:56:11.975Z,5.01
2016-10-26T08:57:20.672Z,5.02
2016-10-26T08:58:29.367Z,5.08
2016-10-26T08:59:38.063Z,5.1
2016-10-26T09:00:46.765Z,5.16
2016-10-26T09:01:55.459Z,5.16
2016-10-26T09:03:04.153Z,5.16
2016-10-26T09:04:12.852Z,5.22
2016-10-26T09:05:21.552Z,5.28
2016-10-26T09:06:30.252Z,5.26
2016-10-26T09:07:38.976Z,5.37
2016-10-26T09:08:47.674Z,5.41
2016-10-26T09:09:56.391Z,5.43
2016-10-26T09:11:05.087Z,5.54
2016-10-26T09:12:13.794Z,5.55
2016-10-26T09:13:22.527Z,5.52
2016-10-26T09:14:31.225Z,5.55
2016-10-26T09:15:39.921Z,5.56
2016-10-26T09:16:48.615Z,5.52
2016-10-26T09:17:57.318Z,5.55
2016-10-26T09:19:06.013Z,5.61
2016-10-26T09:20:14.709Z,5.47
2016-10-26T09:21:23.401Z,5.59
2016-10-26T09:22:32.412Z,5.56
2016-10-26T09:23:41.114Z,5.52
2016-10-26T09:24:49.809Z,5.64
2016-10-26T09:25:58.508Z,5.64
2016-10-26T09:27:07.203Z,5.55
2016-10-26T09:28:15.900Z,5.52
2016-10-26T09:29:24.601Z,5.47
2016-10-26T09:30:33.297Z,5.41
2016-10-26T09:31:42.001Z,5.4
2016-10-26T09:32:50.695Z,5.51
2016-10-26T09:33:59.395Z,5.59
2016-10-26T09:35:08.093Z,5.49
2016-10-26T09:36:16.785Z,5.49
2016-10-26T09:37:25.482Z,5.51
2016-10-26T09:38:34.178Z,5.55
2016-10-26T09:39:42.893Z,5.69
2016-10-26T09:40:51.587Z,5.7
2016-10-26T09:42:00.593Z,5.8
2016-10-26T09:43:09.315Z,5.79
2016-10-26T09:44:18.034Z,5.81
2016-10-26T09:45:26.732Z,5.92
2016-10-26T09:46:35.434Z,5.81
2016-10-26T09:47:44.132Z,5.97
2016-10-26T09:48:52.840Z,6.06
2016-10-26T09:50:01.535Z,6.17
2016-10-26T09:51:10.566Z,6.13
2016-10-26T09:52:19.285Z,6.13
2016-10-26T09:53:27.995Z,6.09
2016-10-26T09:54:36.689Z,6.05
2016-10-26T09:55:45.388Z,5.98
2016-10-26T09:56:54.091Z,5.95
2016-10-26T09:58:02.826Z,6.01
2016-10-26T09:59:11.524Z,5.97
2016-10-26T10:00:20.223Z,6.09
2016-10-26T10:01:28.937Z,6.13
2016-10-26T10:02:37.641Z,6.1
2016-10-26T10:03:46.341Z,6.09
2016-10-26T10:04:55.083Z,6.19
2016-10-26T10:06:03.777Z,6.25
2016-10-26T10:07:12.483Z,6.36
2016-10-26T10:08:21.181Z,6.36
2016-10-26T10:09:29.893Z,6.5
2016-10-26T10:10:38.601Z,6.57
2016-10-26T10:11:47.326Z,6.59
2016-10-26T10:12:56.032Z,6.62
2016-10-26T10:14:04.731Z,6.68
2016-10-26T10:15:13.431Z,6.74
2016-10-26T10:16:22.131Z,6.82
2016-10-26T10:17:30.852Z,6.92
2016-10-26T10:18:40.161Z,6.93
2016-10-26T10:19:48.854Z,7
2016-10-26T10:20:57.551Z,6.97
2016-10-26T10:22:06.250Z,7.04
2016-10-26T10:23:14.955Z,7.07
2016-10-26T10:24:23.660Z,7.04
2016-10-26T10:25:32.356Z,7.07
2016-10-26T10:26:41.051Z,7.05
2016-10-26T10:27:49.742Z,7.11
2016-10-26T10:28:58.444Z,7.14
2016-10-26T10:30:07.142Z,7.28
2016-10-26T10:31:15.848Z,7.26
2016-10-26T10:32:24.545Z,7.23
2016-10-26T10:33:33.244Z,7.13
2016-10-26T10:34:41.973Z,7.14
2016-10-26T10:35:50.673Z,7.05
2016-10-26T10:36:59.375Z,7.07
2016-10-26T10:38:08.075Z,7.05
2016-10-26T10:39:16.774Z,7.07
2016-10-26T10:40:25.589Z,7.05
2016-10-26T10:41:34.296Z,7.11
2016-10-26T10:42:43.006Z,7.01
2016-10-26T10:43:51.710Z,7.08
2016-10-26T10:45:00.409Z,7.08
2016-10-26T10:46:09.113Z,7.1
2016-10-26T10:47:17.814Z,7.15
2016-10-26T10:48:26.509Z,7.11
2016-10-26T10:49:35.214Z,7.07
2016-10-26T10:50:43.973Z,7.08
2016-10-26T10:51:52.671Z,7.05
2016-10-26T10:53:01.404Z,7.1
2016-10-26T10:54:10.099Z,6.96
2016-10-26T10:55:18.827Z,7.07
2016-10-26T10:56:27.527Z,7.03
2016-10-26T10:57:36.222Z,7.11
2016-10-26T10:58:44.925Z,7.15
2016-10-26T10:59:53.626Z,7.13
2016-10-26T11:01:02.331Z,7.18
2016-10-26T11:02:11.040Z,7.31
2016-10-26T11:03:19.737Z,7.23
2016-10-26T11:04:28.436Z,7.31
2016-10-26T11:05:37.134Z,7.39
2016-10-26T11:06:45.837Z,7.56
2016-10-26T11:07:54.531Z,7.66
2016-10-26T11:09:03.231Z,7.78
2016-10-26T11:10:11.941Z,7.95
2016-10-26T11:11:20.640Z,8.11
2016-10-26T11:12:29.345Z,8.18
2016-10-26T11:13:38.050Z,8.31
2016-10-26T11:14:46.764Z,8.35
2016-10-26T11:15:55.473Z,8.45
2016-10-26T11:17:04.168Z,8.72
2016-10-26T11:18:12.872Z,8.77
2016-10-26T11:19:21.568Z,8.72
2016-10-26T11:20:30.263Z,8.81
2016-10-26T11:21:38.958Z,8.89
2016-10-26T11:22:47.654Z,9.09
2016-10-26T11:23:56.353Z,9.4
2016-10-26T11:25:05.094Z,9.37
2016-10-26T11:26:13.845Z,9.29
2016-10-26T11:27:22.540Z,9.31
2016-10-26T11:28:31.250Z,9.27
2016-10-26T11:29:39.952Z,9.42
2016-10-26T11:30:48.682Z,9.33
2016-10-26T11:31:57.383Z,9.3
2016-10-26T11:33:06.111Z,9.18
2016-10-26T11:34:14.806Z,9.13
2016-10-26T11:35:23.515Z,9.16
2016-10-26T11:36:32.221Z,8.97
2016-10-26T11:37:40.918Z,8.77
2016-10-26T11:38:49.638Z,8.6
2016-10-26T11:39:58.347Z,8.61
2016-10-26T11:41:07.053Z,8.57
2016-10-26T11:42:15.771Z,8.53
2016-10-26T11:43:24.472Z,8.44
2016-10-26T11:44:33.172Z,8.49
2016-10-26T11:45:41.864Z,8.41
2016-10-26T11:46:50.569Z,8.42
2016-10-26T11:47:59.281Z,8.28
2016-10-26T11:49:08.005Z,8.14
2016-10-26T11:50:16.705Z,8.03
2016-10-26T11:51:25.403Z,7.9
2016-10-26T11:52:34.120Z,7.81
2016-10-26T11:53:42.819Z,7.78
2016-10-26T11:54:51.531Z,7.72
2016-10-26T11:56:00.238Z,7.8
2016-10-26T11:57:08.937Z,7.75
2016-10-26T11:58:17.641Z,7.81
2016-10-26T11:59:26.362Z,7.91
2016-10-26T12:00:35.065Z,7.96
2016-10-26T12:01:43.761Z,8.21
2016-10-26T12:02:52.461Z,8.21
2016-10-26T12:04:01.162Z,8.34
2016-10-26T12:05:09.893Z,8.53
2016-10-26T12:06:18.605Z,8.69
2016-10-26T12:07:27.336Z,8.92
2016-10-26T12:08:36.027Z,9.02
2016-10-26T12:09:44.732Z,9.27
2016-10-26T12:10:53.425Z,9.26
2016-10-26T12:12:02.126Z,9.12
2016-10-26T12:13:10.833Z,8.99
2016-10-26T12:14:19.526Z,8.75
2016-10-26T12:15:28.227Z,8.69
2016-10-26T12:16:36.930Z,8.74
2016-10-26T12:17:45.629Z,8.77
2016-10-26T12:18:54.359Z,8.84
2016-10-26T12:20:03.075Z,8.84
2016-10-26T12:21:11.777Z,8.99
2016-10-26T12:22:20.486Z,9
2016-10-26T12:23:29.181Z,9.08
2016-10-26T12:24:37.882Z,9.02
2016-10-26T12:25:46.586Z,9.05
2016-10-26T12:26:55.295Z,9.03
2016-10-26T12:28:04.006Z,8.92
2016-10-26T12:29:12.709Z,8.78
2016-10-26T12:30:21.409Z,8.41
2016-10-26T12:31:30.102Z,8.23
2016-10-26T12:32:38.801Z,8.06
2016-10-26T12:33:47.548Z,7.72
2016-10-26T12:34:56.565Z,7.51
2016-10-26T12:36:05.296Z,7.14
2016-10-26T12:37:14.000Z,7.03
2016-10-26T12:38:22.725Z,6.72
2016-10-26T12:39:31.433Z,6.57
2016-10-26T12:40:40.238Z,6.46
2016-10-26T12:41:48.933Z,6.46
2016-10-26T12:42:57.634Z,6.34
2016-10-26T12:44:06.329Z,6.25
2016-10-26T12:45:15.030Z,6.2
2016-10-26T12:46:23.725Z,6.15
2016-10-26T12:47:32.463Z,6.13
2016-10-26T12:48:41.160Z,6.15
2016-10-26T12:49:49.861Z,6.05
2016-10-26T12:50:58.577Z,5.98
2016-10-26T12:52:07.593Z,5.9
2016-10-26T12:53:16.337Z,5.94
2016-10-26T12:54:25.033Z,5.87
2016-10-26T12:55:33.735Z,5.8
2016-10-26T12:56:42.745Z,5.74
2016-10-26T12:57:51.450Z,5.7
2016-10-26T12:59:00.150Z,5.62
2016-10-26T13:00:08.849Z,5.67
2016-10-26T13:01:17.545Z,5.65
2016-10-26T13:02:26.242Z,5.67
2016-10-26T13:03:34.945Z,5.61
2016-10-26T13:04:43.641Z,5.65
2016-10-26T13:05:52.340Z,5.54
2016-10-26T13:07:01.047Z,5.54
2016-10-26T13:08:09.758Z,5.47
2016-10-26T13:09:18.457Z,5.51
2016-10-26T13:10:27.150Z,5.49
2016-10-26T13:11:35.846Z,5.41
2016-10-26T13:12:44.546Z,5.44
2016-10-26T13:13:53.247Z,5.23
2016-10-26T13:15:01.949Z,5.28
2016-10-26T13:16:10.687Z,5.28
2016-10-26T13:17:19.385Z,5.28
2016-10-26T13:18:28.082Z,5.19
2016-10-26T13:19:36.781Z,5.23
2016-10-26T13:20:45.487Z,5.2
2016-10-26T13:21:54.179Z,5.16
2016-10-26T13:23:02.884Z,5.2
2016-10-26T13:24:11.580Z,5.25
2016-10-26T13:25:20.274Z,5.23
2016-10-26T13:26:28.983Z,5.19
2016-10-26T13:27:37.683Z,5.22
2016-10-26T13:28:46.387Z,5.22
2016-10-26T13:29:55.102Z,5.23
2016-10-26T13:31:03.801Z,5.29
2016-10-26T13:32:12.504Z,5.28
2016-10-26T13:33:21.200Z,5.33
2016-10-26T13:34:29.897Z,5.37
2016-10-26T13:35:38.599Z,5.34
2016-10-26T13:36:47.301Z,5.31
2016-10-26T13:37:55.995Z,5.36
2016-10-26T13:39:04.694Z,5.41
2016-10-26T13:40:13.396Z,5.34
2016-10-26T13:41:22.096Z,5.47
2016-10-26T13:42:30.794Z,5.43
2016-10-26T13:43:39.503Z,5.41
2016-10-26T13:44:48.205Z,5.4
2016-10-26T13:45:56.908Z,5.4
2016-10-26T13:47:05.613Z,5.36
2016-10-26T13:48:14.312Z,5.34
2016-10-26T13:49:23.009Z,5.33
2016-10-26T13:50:31.710Z,5.34
2016-10-26T13:51:40.416Z,5.36
2016-10-26T13:52:49.129Z,5.36
2016-10-26T13:53:57.829Z,5.28
2016-10-26T13:55:06.528Z,5.25
2016-10-26T13:56:15.226Z,5.29
2016-10-26T13:57:23.925Z,5.29
2016-10-26T13:58:32.662Z,5.31
2016-10-26T13:59:41.362Z,5.34
2016-10-26T14:00:50.065Z,5.36
2016-10-26T14:01:58.772Z,5.34
2016-10-26T14:03:07.479Z,5.37
2016-10-26T14:04:16.215Z,5.31
2016-10-26T14:05:24.916Z,5.25
2016-10-26T14:06:33.610Z,5.25
2016-10-26T14:07:42.309Z,5.19
2016-10-26T14:08:51.013Z,5.28
2016-10-26T14:09:59.713Z,5.23
2016-10-26T14:11:08.418Z,5.29
2016-10-26T14:12:17.111Z,5.26
2016-10-26T14:13:25.824Z,5.19
2016-10-26T14:14:34.519Z,5.19
2016-10-26T14:15:43.224Z,5.08
2016-10-26T14:16:51.925Z,5.12
2016-10-26T14:18:00.624Z,5.12
2016-10-26T14:19:09.323Z,5.1
2016-10-26T14:20:18.028Z,5.1
2016-10-26T14:21:26.724Z,5.28
2016-10-26T14:22:35.423Z,5.38
2016-10-26T14:23:44.123Z,5.46
2016-10-26T14:24:52.815Z,5.46
2016-10-26T14:26:01.831Z,5.46
2016-10-26T14:27:10.539Z,5.46
2016-10-26T14:28:19.272Z,5.55
2016-10-26T14:29:27.967Z,5.52
2016-10-26T14:30:36.667Z,5.46
2016-10-26T14:31:45.677Z,5.43
2016-10-26T14:32:54.378Z,5.44
2016-10-26T14:34:03.093Z,5.51
2016-10-26T14:35:11.791Z,5.43
2016-10-26T14:36:20.489Z,5.43
2016-10-26T14:37:29.190Z,5.51
2016-10-26T14:38:37.887Z,5.46
2016-10-26T14:39:46.582Z,5.43
2016-10-26T14:40:55.285Z,5.33
2016-10-26T14:42:03.982Z,5.33
2016-10-26T14:43:12.682Z,5.18
2016-10-26T14:44:21.403Z,5.2
2016-10-26T14:45:30.099Z,5.23
2016-10-26T14:46:38.800Z,5.19
2016-10-26T14:47:47.502Z,5.2
2016-10-26T14:48:56.247Z,5.2
2016-10-26T14:50:04.944Z,5.15
2016-10-26T14:51:13.651Z,5.23
2016-10-26T14:52:22.380Z,5.18
2016-10-26T14:53:31.080Z,5.19
2016-10-26T14:54:39.775Z,5.15
2016-10-26T14:55:48.485Z,5.1
2016-10-26T14:56:57.189Z,5.19
2016-10-26T14:58:05.894Z,5.2
2016-10-26T14:59:14.591Z,5.22
2016-10-26T15:00:23.297Z,5.1
2016-10-26T15:01:31.993Z,5.07
2016-10-26T15:02:40.699Z,5.15
2016-10-26T15:03:49.403Z,5.15
2016-10-26T15:04:58.101Z,5.16
2016-10-26T15:06:07.120Z,5.15
2016-10-26T15:07:15.819Z,5.2
2016-10-26T15:08:24.522Z,5.13
2016-10-26T15:09:33.221Z,5.16
2016-10-26T15:10:41.931Z,5.19
2016-10-26T15:11:50.646Z,5.19
2016-10-26T15:12:59.698Z,5.22
2016-10-26T15:14:08.399Z,5.18
2016-10-26T15:15:17.104Z,5.15
2016-10-26T15:16:25.800Z,5.15
2016-10-26T15:17:34.501Z,5.2